Time;durP1;ratioP1;P1;durP2;ratioP2;P2;SDS_P1;SDS_P2;PMS_P1;PMS_P2;Temp;Humidity;BMP_temperature;BMP_pressure;BME280_temperature;BME280_humidity;BME280_pressure;Samples;Min_cycle;Max_cycle;Signal;HPM_P1;HPM_P2
2022/10/14 00:02:00;;;;;;;3.03;2.35;;;;;;;;;;5058289;28;20116;-74
2022/10/14 00:04:26;;;;;;;3.20;2.15;;;;;;;;;;5070966;28;20075;-74
2022/10/14 00:06:52;;;;;;;4.43;3.05;;;;;;;;;;5063084;28;20036;-73
2022/10/14 00:09:18;;;;;;;3.85;2.20;;;;;;;;;;5073074;28;20514;-73
2022/10/14 00:11:44;;;;;;;5.75;2.80;;;;;;;;;;5069819;28;20629;-74
2022/10/14 00:14:12;;;;;;;5.07;2.33;;;;;;;;;;5069355;28;20131;-73
2022/10/14 00:16:40;;;;;;;3.78;2.40;;;;;;;;;;5069192;28;20029;-74
2022/10/14 00:19:06;;;;;;;5.15;2.75;;;;;;;;;;5061074;28;20573;-73
2022/10/14 00:21:34;;;;;;;3.60;2.20;;;;;;;;;;5072855;28;20045;-73
2022/10/14 00:24:00;;;;;;;5.78;3.10;;;;;;;;;;5055571;28;20074;-74
2022/10/14 00:26:28;;;;;;;5.13;3.17;;;;;;;;;;5072266;28;20095;-74
2022/10/14 00:28:55;;;;;;;4.65;3.17;;;;;;;;;;5067415;28;20053;-74
2022/10/14 00:31:21;;;;;;;4.70;2.95;;;;;;;;;;5034109;28;20033;-73
2022/10/14 00:33:47;;;;;;;4.22;2.70;;;;;;;;;;5049331;28;20041;-73
2022/10/14 00:36:15;;;;;;;4.43;3.00;;;;;;;;;;5046054;28;20052;-74
2022/10/14 00:38:41;;;;;;;4.30;2.78;;;;;;;;;;5027925;28;20048;-73
2022/10/14 00:41:08;;;;;;;4.88;3.50;;;;;;;;;;5053382;28;20073;-74
2022/10/14 00:43:53;;;;;;;9.88;3.67;;;;;;;;;;5041507;28;20087;-74
2022/10/14 00:46:19;;;;;;;3.70;2.70;;;;;;;;;;5048302;28;20160;-73
2022/10/14 00:48:45;;;;;;;5.15;3.45;;;;;;;;;;5049856;28;20122;-74
2022/10/14 00:51:11;;;;;;;3.78;2.50;;;;;;;;;;5027273;28;20069;-74
2022/10/14 00:53:39;;;;;;;4.20;3.05;;;;;;;;;;5049793;28;20140;-74
2022/10/14 00:56:07;;;;;;;3.33;2.30;;;;;;;;;;5041863;28;20041;-74
2022/10/14 00:58:35;;;;;;;4.55;2.90;;;;;;;;;;5048189;28;20487;-74
2022/10/14 01:01:01;;;;;;;3.85;2.30;;;;;;;;;;5046563;28;20036;-74
2022/10/14 01:03:27;;;;;;;4.20;2.90;;;;;;;;;;5049033;28;20132;-73
2022/10/14 01:05:57;;;;;;;3.60;2.65;;;;;;;;;;5031409;28;20049;-73
2022/10/14 01:08:27;;;;;;;4.78;2.60;;;;;;;;;;5046997;28;20046;-73
2022/10/14 01:11:01;;;;;;;4.35;2.80;;;;;;;;;;5031568;28;20071;-74
2022/10/14 01:13:30;;;;;;;4.43;2.65;;;;;;;;;;5050989;28;20042;-73
2022/10/14 01:16:06;;;;;;;3.63;2.35;;;;;;;;;;5048055;28;20041;-74
2022/10/14 01:18:46;;;;;;;4.03;2.85;;;;;;;;;;5029277;28;20192;-74
2022/10/14 01:21:35;;;;;;;4.82;2.72;;;;;;;;;;5050765;28;20045;-73
2022/10/14 01:24:04;;;;;;;3.80;2.45;;;;;;;;;;5009246;28;20132;-73
2022/10/14 01:26:48;;;;;;;4.10;2.33;;;;;;;;;;5031598;28;20217;-74
2022/10/14 01:29:33;;;;;;;4.28;2.85;;;;;;;;;;5034064;28;20691;-73
2022/10/14 01:32:05;;;;;;;3.72;2.65;;;;;;;;;;5017944;28;20048;-73
2022/10/14 01:34:35;;;;;;;4.47;2.60;;;;;;;;;;5042424;28;20045;-74
2022/10/14 01:37:05;;;;;;;4.38;2.63;;;;;;;;;;5048333;28;20048;-74
2022/10/14 01:39:33;;;;;;;5.47;3.08;;;;;;;;;;5041679;28;20051;-74
2022/10/14 01:42:12;;;;;;;4.85;2.72;;;;;;;;;;5044078;28;20111;-75
2022/10/14 01:44:40;;;;;;;4.28;3.05;;;;;;;;;;5037645;28;20047;-74
2022/10/14 01:47:07;;;;;;;4.63;2.80;;;;;;;;;;5044836;28;20052;-73
2022/10/14 01:49:40;;;;;;;4.15;2.28;;;;;;;;;;5021666;28;20614;-74
2022/10/14 01:52:13;;;;;;;4.07;2.50;;;;;;;;;;5028240;28;20044;-74
2022/10/14 01:54:41;;;;;;;4.45;3.72;;;;;;;;;;5049683;28;20175;-75
2022/10/14 01:57:08;;;;;;;4.75;2.80;;;;;;;;;;5023968;28;20037;-73
2022/10/14 01:59:35;;;;;;;4.45;2.95;;;;;;;;;;5046844;28;20198;-74
2022/10/14 02:02:01;;;;;;;4.32;2.42;;;;;;;;;;5027563;28;20090;-74
2022/10/14 02:04:28;;;;;;;6.18;2.60;;;;;;;;;;5047816;28;20076;-73
2022/10/14 02:07:12;;;;;;;5.65;3.45;;;;;;;;;;5048134;28;20100;-73
2022/10/14 02:09:39;;;;;;;5.47;2.95;;;;;;;;;;5047139;28;20041;-74
2022/10/14 02:12:11;;;;;;;4.60;2.88;;;;;;;;;;5040839;28;20114;-73
2022/10/14 02:14:50;;;;;;;4.00;2.70;;;;;;;;;;5024929;28;20045;-74
2022/10/14 02:17:21;;;;;;;6.53;3.25;;;;;;;;;;5026697;28;20048;-73
2022/10/14 02:19:47;;;;;;;9.30;2.83;;;;;;;;;;5026763;28;20067;-73
2022/10/14 02:22:24;;;;;;;7.18;3.28;;;;;;;;;;5044156;28;21495;-73
2022/10/14 02:24:52;;;;;;;6.45;3.08;;;;;;;;;;5047820;28;20041;-74
2022/10/14 02:27:20;;;;;;;4.65;2.90;;;;;;;;;;5031638;28;20044;-73
2022/10/14 02:29:47;;;;;;;4.63;3.20;;;;;;;;;;5041482;28;20049;-73
2022/10/14 02:32:14;;;;;;;4.43;3.03;;;;;;;;;;5067279;28;20127;-73
2022/10/14 02:34:41;;;;;;;6.20;2.65;;;;;;;;;;5066628;28;20570;-73
2022/10/14 02:37:07;;;;;;;5.32;3.15;;;;;;;;;;5067933;28;20048;-74
2022/10/14 02:39:40;;;;;;;5.30;2.60;;;;;;;;;;5083062;27;20044;-74
2022/10/14 02:42:06;;;;;;;4.90;2.78;;;;;;;;;;5069164;28;20032;-73
2022/10/14 02:44:32;;;;;;;5.47;3.25;;;;;;;;;;5083183;27;20112;-74
2022/10/14 02:46:59;;;;;;;5.97;3.33;;;;;;;;;;5061922;28;20048;-73
2022/10/14 02:49:25;;;;;;;4.85;3.10;;;;;;;;;;5087364;27;20036;-73
2022/10/14 02:51:51;;;;;;;5.15;2.90;;;;;;;;;;5053094;28;20111;-73
2022/10/14 02:54:17;;;;;;;4.00;2.42;;;;;;;;;;5088508;27;20057;-73
2022/10/14 02:56:43;;;;;;;6.68;3.38;;;;;;;;;;5072563;28;20504;-73
2022/10/14 02:59:09;;;;;;;4.85;2.88;;;;;;;;;;5062935;28;20045;-74
2022/10/14 03:01:35;;;;;;;3.83;2.65;;;;;;;;;;5052787;28;20067;-74
2022/10/14 03:04:02;;;;;;;4.30;2.30;;;;;;;;;;5064936;28;20036;-73
2022/10/14 03:06:28;;;;;;;4.32;2.20;;;;;;;;;;5087487;27;20044;-74
2022/10/14 03:08:54;;;;;;;3.35;2.00;;;;;;;;;;5073828;28;20646;-73
2022/10/14 03:11:20;;;;;;;3.35;1.90;;;;;;;;;;5088002;27;20041;-73
2022/10/14 03:13:46;;;;;;;4.22;2.70;;;;;;;;;;5088497;27;20083;-73
2022/10/14 03:16:12;;;;;;;6.90;2.90;;;;;;;;;;5052846;28;20044;-74
2022/10/14 03:18:38;;;;;;;4.85;2.28;;;;;;;;;;5074170;28;20082;-73
2022/10/14 03:21:04;;;;;;;4.80;2.42;;;;;;;;;;5073337;28;20098;-73
2022/10/14 03:23:31;;;;;;;3.17;2.28;;;;;;;;;;5088059;27;20040;-73
2022/10/14 03:25:57;;;;;;;3.60;1.83;;;;;;;;;;5073046;28;21284;-73
2022/10/14 03:28:23;;;;;;;4.05;1.90;;;;;;;;;;5051485;28;20051;-74
2022/10/14 03:30:49;;;;;;;4.03;2.00;;;;;;;;;;5033455;28;20584;-73
2022/10/14 03:33:15;;;;;;;5.65;2.67;;;;;;;;;;5032173;28;20040;-73
2022/10/14 03:35:41;;;;;;;4.75;2.38;;;;;;;;;;5052341;28;20490;-73
2022/10/14 03:38:08;;;;;;;3.28;2.00;;;;;;;;;;5031428;28;20985;-75
2022/10/14 03:40:34;;;;;;;4.75;2.70;;;;;;;;;;5052724;28;20566;-73
2022/10/14 03:43:00;;;;;;;3.60;2.05;;;;;;;;;;5034902;28;20045;-75
2022/10/14 03:45:27;;;;;;;4.45;2.33;;;;;;;;;;5065890;28;20049;-74
2022/10/14 03:47:53;;;;;;;4.00;2.42;;;;;;;;;;5051694;28;20038;-71
2022/10/14 03:50:19;;;;;;;4.43;2.30;;;;;;;;;;5034462;28;20045;-71
2022/10/14 03:52:46;;;;;;;6.50;3.28;;;;;;;;;;5051913;28;20103;-71
2022/10/14 03:55:12;;;;;;;4.25;2.60;;;;;;;;;;5051839;28;20061;-71
2022/10/14 03:57:39;;;;;;;4.50;2.42;;;;;;;;;;5050032;28;20137;-73
2022/10/14 04:00:05;;;;;;;4.63;2.70;;;;;;;;;;5034503;28;20045;-71
2022/10/14 04:02:31;;;;;;;4.97;3.13;;;;;;;;;;5051319;28;20044;-71
2022/10/14 04:04:57;;;;;;;6.20;2.70;;;;;;;;;;5035039;28;20103;-72
2022/10/14 04:07:24;;;;;;;4.72;2.85;;;;;;;;;;5064594;28;20103;-72
2022/10/14 04:09:50;;;;;;;4.85;2.85;;;;;;;;;;5066238;28;20037;-73
2022/10/14 04:12:16;;;;;;;5.18;2.83;;;;;;;;;;5047724;28;20037;-71
2022/10/14 04:14:42;;;;;;;4.43;2.67;;;;;;;;;;5052457;28;20041;-71
2022/10/14 04:17:08;;;;;;;7.15;2.95;;;;;;;;;;5028767;28;20131;-72
2022/10/14 04:19:34;;;;;;;8.63;3.10;;;;;;;;;;5048870;28;20098;-72
2022/10/14 04:22:01;;;;;;;4.10;2.55;;;;;;;;;;5065787;28;20053;-72
2022/10/14 04:24:27;;;;;;;6.63;2.55;;;;;;;;;;5039375;28;20037;-72
2022/10/14 04:26:54;;;;;;;4.18;2.83;;;;;;;;;;5049170;28;20049;-72
2022/10/14 04:29:20;;;;;;;5.90;3.10;;;;;;;;;;5055719;28;20045;-72
2022/10/14 04:31:46;;;;;;;8.07;3.70;;;;;;;;;;5052664;28;20045;-73
2022/10/14 04:34:12;;;;;;;4.65;3.13;;;;;;;;;;5044937;28;20045;-72
2022/10/14 04:36:38;;;;;;;5.82;3.15;;;;;;;;;;5043103;28;20048;-73
2022/10/14 04:39:05;;;;;;;4.95;3.97;;;;;;;;;;5067402;28;20041;-72
2022/10/14 04:41:32;;;;;;;6.15;4.05;;;;;;;;;;5046770;28;20165;-73
2022/10/14 04:43:58;;;;;;;6.03;3.45;;;;;;;;;;5069698;28;20049;-73
2022/10/14 04:46:24;;;;;;;6.22;3.08;;;;;;;;;;5050711;28;21182;-72
2022/10/14 04:48:50;;;;;;;7.30;3.20;;;;;;;;;;5051420;28;20565;-71
2022/10/14 04:51:16;;;;;;;5.20;3.05;;;;;;;;;;5048326;28;20041;-72
2022/10/14 04:53:42;;;;;;;7.70;3.90;;;;;;;;;;5046495;28;20056;-73
2022/10/14 04:56:09;;;;;;;9.73;3.83;;;;;;;;;;5068816;28;20579;-72
2022/10/14 04:58:35;;;;;;;6.63;3.58;;;;;;;;;;5056934;28;20049;-72
2022/10/14 05:01:01;;;;;;;6.32;4.45;;;;;;;;;;5052407;28;20137;-72
2022/10/14 05:03:27;;;;;;;6.75;3.92;;;;;;;;;;5066858;28;20045;-72
2022/10/14 05:05:53;;;;;;;7.07;3.78;;;;;;;;;;5060333;28;20036;-72
2022/10/14 05:08:25;;;;;;;6.35;3.97;;;;;;;;;;5058374;28;20048;-72
2022/10/14 05:10:51;;;;;;;6.03;3.03;;;;;;;;;;5067263;28;20041;-73
2022/10/14 05:13:17;;;;;;;6.22;3.53;;;;;;;;;;5068790;28;20610;-73
2022/10/14 05:15:43;;;;;;;8.23;4.45;;;;;;;;;;5050000;28;20066;-72
2022/10/14 05:18:13;;;;;;;7.03;3.90;;;;;;;;;;5070176;28;20088;-73
2022/10/14 05:20:39;;;;;;;7.18;4.00;;;;;;;;;;5069669;28;20044;-73
2022/10/14 05:23:06;;;;;;;9.60;3.63;;;;;;;;;;5068498;28;20036;-72
2022/10/14 05:25:32;;;;;;;6.90;3.83;;;;;;;;;;5050386;28;20037;-73
2022/10/14 05:27:58;;;;;;;8.10;3.58;;;;;;;;;;5070184;28;20515;-73
2022/10/14 05:30:24;;;;;;;5.90;3.40;;;;;;;;;;5067531;28;20045;-73
2022/10/14 05:32:50;;;;;;;7.07;3.55;;;;;;;;;;5060633;28;20388;-72
2022/10/14 05:35:16;;;;;;;6.10;3.65;;;;;;;;;;5072531;28;20041;-72
2022/10/14 05:37:43;;;;;;;6.45;3.55;;;;;;;;;;5067533;28;20234;-72
2022/10/14 05:40:09;;;;;;;10.60;3.42;;;;;;;;;;5049319;28;20585;-72
2022/10/14 05:42:36;;;;;;;7.05;3.60;;;;;;;;;;5046683;28;20056;-73
2022/10/14 05:45:02;;;;;;;6.05;3.30;;;;;;;;;;5068265;28;20044;-73
2022/10/14 05:47:31;;;;;;;5.82;3.28;;;;;;;;;;5067684;28;20071;-72
2022/10/14 05:49:58;;;;;;;6.05;3.38;;;;;;;;;;5068107;28;20067;-72
2022/10/14 05:52:24;;;;;;;6.68;3.45;;;;;;;;;;5066902;28;20044;-72
2022/10/14 05:54:51;;;;;;;6.40;3.47;;;;;;;;;;5065559;28;20080;-73
2022/10/14 05:57:17;;;;;;;4.78;3.40;;;;;;;;;;5067588;28;20041;-72
2022/10/14 05:59:43;;;;;;;6.35;3.55;;;;;;;;;;5048967;28;20048;-73
2022/10/14 06:02:09;;;;;;;7.35;3.72;;;;;;;;;;5083799;27;20218;-73
2022/10/14 06:04:35;;;;;;;5.25;3.08;;;;;;;;;;5068528;28;20041;-73
2022/10/14 06:07:02;;;;;;;5.68;3.38;;;;;;;;;;5070068;28;20044;-73
2022/10/14 06:09:30;;;;;;;5.47;3.58;;;;;;;;;;5048448;28;20475;-73
2022/10/14 06:11:56;;;;;;;5.63;2.95;;;;;;;;;;5066694;28;20136;-72
2022/10/14 06:14:22;;;;;;;4.60;2.97;;;;;;;;;;5069043;28;20045;-72
2022/10/14 06:16:51;;;;;;;5.63;3.20;;;;;;;;;;5046121;28;20142;-73
2022/10/14 06:19:17;;;;;;;5.22;3.00;;;;;;;;;;5067750;28;20119;-73
2022/10/14 06:21:44;;;;;;;5.35;2.55;;;;;;;;;;5070734;28;20420;-72
2022/10/14 06:24:10;;;;;;;5.88;3.58;;;;;;;;;;5068685;28;20347;-72
2022/10/14 06:26:37;;;;;;;5.45;3.45;;;;;;;;;;5049976;28;20541;-71
2022/10/14 06:29:03;;;;;;;5.63;3.63;;;;;;;;;;5045147;28;20128;-71
2022/10/14 06:31:29;;;;;;;6.60;3.47;;;;;;;;;;5065785;28;20913;-73
2022/10/14 06:33:55;;;;;;;5.80;3.80;;;;;;;;;;5048794;28;20048;-74
2022/10/14 06:36:21;;;;;;;6.78;3.45;;;;;;;;;;5046806;28;20044;-71
2022/10/14 06:38:47;;;;;;;10.85;4.38;;;;;;;;;;5049984;28;20064;-71
2022/10/14 06:41:14;;;;;;;12.32;4.80;;;;;;;;;;5069760;28;20041;-71
2022/10/14 06:43:40;;;;;;;5.72;3.08;;;;;;;;;;5049189;28;20236;-71
2022/10/14 06:46:06;;;;;;;9.02;4.32;;;;;;;;;;5059646;28;20151;-72
2022/10/14 06:48:32;;;;;;;4.80;3.25;;;;;;;;;;5068742;28;20037;-70
2022/10/14 06:50:59;;;;;;;6.75;4.05;;;;;;;;;;5070132;28;20060;-73
2022/10/14 06:53:25;;;;;;;5.95;3.17;;;;;;;;;;5063744;28;20040;-71
2022/10/14 06:56:02;;;;;;;6.72;3.67;;;;;;;;;;5069844;28;20656;-71
2022/10/14 06:58:28;;;;;;;5.32;3.85;;;;;;;;;;5071767;28;20040;-71
2022/10/14 07:00:54;;;;;;;6.28;3.10;;;;;;;;;;5067470;28;20591;-71
2022/10/14 07:03:21;;;;;;;5.85;3.50;;;;;;;;;;5068017;28;20546;-71
2022/10/14 07:05:47;;;;;;;9.63;3.42;;;;;;;;;;5047169;28;20073;-71
2022/10/14 07:08:13;;;;;;;10.15;3.75;;;;;;;;;;5049135;28;20049;-71
2022/10/14 07:10:39;;;;;;;5.95;4.13;;;;;;;;;;5066782;28;20079;-71
2022/10/14 07:13:05;;;;;;;5.95;3.33;;;;;;;;;;5066843;28;20037;-72
2022/10/14 07:15:31;;;;;;;5.25;3.17;;;;;;;;;;5043423;28;20064;-71
2022/10/14 07:17:57;;;;;;;7.95;4.80;;;;;;;;;;5048005;28;20033;-75
2022/10/14 07:20:24;;;;;;;8.55;4.60;;;;;;;;;;5067494;28;20048;-73
2022/10/14 07:22:54;;;;;;;19.42;5.95;;;;;;;;;;5066965;28;20052;-71
2022/10/14 07:25:20;;;;;;;5.22;3.05;;;;;;;;;;5063452;28;20047;-72
2022/10/14 07:27:46;;;;;;;5.38;3.67;;;;;;;;;;5069354;28;20044;-71
2022/10/14 07:30:12;;;;;;;9.38;4.32;;;;;;;;;;5067599;28;20140;-71
2022/10/14 07:32:38;;;;;;;6.45;3.38;;;;;;;;;;5054213;28;20036;-71
2022/10/14 07:35:05;;;;;;;6.80;3.38;;;;;;;;;;5072632;28;20068;-71
2022/10/14 07:37:31;;;;;;;5.50;3.20;;;;;;;;;;5051758;28;20076;-71
2022/10/14 07:39:57;;;;;;;6.57;3.50;;;;;;;;;;5072428;28;20501;-71
2022/10/14 07:42:24;;;;;;;4.82;2.80;;;;;;;;;;5073291;28;20139;-70
2022/10/14 07:44:52;;;;;;;6.25;4.20;;;;;;;;;;5071806;28;20041;-70
2022/10/14 07:47:19;;;;;;;6.00;3.08;;;;;;;;;;5054512;28;20095;-71
2022/10/14 07:49:45;;;;;;;5.55;3.38;;;;;;;;;;5052574;28;20052;-71
2022/10/14 07:52:11;;;;;;;6.85;3.75;;;;;;;;;;5070797;28;20052;-70
2022/10/14 07:54:37;;;;;;;6.18;3.00;;;;;;;;;;5049051;28;20052;-70
2022/10/14 07:57:04;;;;;;;6.07;3.28;;;;;;;;;;5066428;28;21296;-72
2022/10/14 07:59:30;;;;;;;6.72;3.30;;;;;;;;;;5068409;28;20198;-71
2022/10/14 08:01:56;;;;;;;5.80;3.40;;;;;;;;;;5067865;28;20045;-71
2022/10/14 08:04:22;;;;;;;6.60;4.07;;;;;;;;;;5068589;28;20053;-71
2022/10/14 08:06:56;;;;;;;5.85;2.65;;;;;;;;;;5066889;28;20041;-75
2022/10/14 08:09:22;;;;;;;4.22;2.63;;;;;;;;;;5069673;28;20076;-69
2022/10/14 08:11:48;;;;;;;6.28;3.30;;;;;;;;;;5050236;28;20521;-69
2022/10/14 08:14:15;;;;;;;6.00;3.05;;;;;;;;;;5047821;28;20037;-70
2022/10/14 08:16:41;;;;;;;5.60;2.60;;;;;;;;;;5073902;28;20543;-71
2022/10/14 08:19:09;;;;;;;5.40;2.55;;;;;;;;;;5052910;28;20049;-71
2022/10/14 08:21:35;;;;;;;3.22;1.90;;;;;;;;;;5052851;28;20044;-70
2022/10/14 08:24:01;;;;;;;3.60;2.05;;;;;;;;;;5052181;28;20570;-70
2022/10/14 08:26:29;;;;;;;6.10;1.85;;;;;;;;;;5071569;28;20087;-70
2022/10/14 08:28:56;;;;;;;3.15;1.90;;;;;;;;;;5041242;28;20197;-70
2022/10/14 08:31:23;;;;;;;2.53;1.40;;;;;;;;;;5048111;28;20545;-70
2022/10/14 08:33:49;;;;;;;3.42;1.73;;;;;;;;;;5033630;28;20049;-69
2022/10/14 08:36:15;;;;;;;3.83;1.60;;;;;;;;;;5033686;28;20037;-70
2022/10/14 08:38:41;;;;;;;2.08;1.42;;;;;;;;;;5050083;28;20613;-70
2022/10/14 08:41:07;;;;;;;5.15;2.08;;;;;;;;;;5048346;28;20041;-70
2022/10/14 08:43:36;;;;;;;2.83;1.20;;;;;;;;;;5049048;28;20049;-71
2022/10/14 08:46:09;;;;;;;1.95;1.35;;;;;;;;;;5048012;28;20091;-70
2022/10/14 08:48:36;;;;;;;2.17;1.15;;;;;;;;;;5047064;28;20042;-69
2022/10/14 08:51:13;;;;;;;2.08;0.85;;;;;;;;;;5026947;28;20045;-70
2022/10/14 08:53:47;;;;;;;3.55;1.23;;;;;;;;;;5028194;28;20055;-70
2022/10/14 08:56:14;;;;;;;1.75;0.90;;;;;;;;;;5046547;28;20585;-70
2022/10/14 08:58:40;;;;;;;1.17;0.82;;;;;;;;;;5062131;28;20345;-70
2022/10/14 09:01:24;;;;;;;1.20;1.08;;;;;;;;;;5029362;28;20565;-69
2022/10/14 09:03:57;;;;;;;2.63;2.38;;;;;;;;;;5050317;28;20076;-69
2022/10/14 09:06:27;;;;;;;2.88;1.15;;;;;;;;;;5031086;28;20613;-70
2022/10/14 09:09:00;;;;;;;2.10;1.15;;;;;;;;;;5036232;28;20057;-70
2022/10/14 09:11:27;;;;;;;1.85;1.10;;;;;;;;;;5029682;28;20033;-70
2022/10/14 09:13:55;;;;;;;1.92;1.08;;;;;;;;;;5034642;28;20045;-69
2022/10/14 09:16:45;;;;;;;3.55;1.55;;;;;;;;;;5035496;28;20042;-75
2022/10/14 09:19:18;;;;;;;2.13;1.40;;;;;;;;;;5033193;28;20051;-71
2022/10/14 09:21:49;;;;;;;3.50;1.45;;;;;;;;;;5025399;28;20037;-71
2022/10/14 09:24:15;;;;;;;2.00;1.25;;;;;;;;;;5040668;28;20562;-71
2022/10/14 09:26:43;;;;;;;2.60;1.80;;;;;;;;;;5053282;28;20207;-75
2022/10/14 09:29:19;;;;;;;3.67;2.35;;;;;;;;;;5037818;28;20056;-71
2022/10/14 09:31:45;;;;;;;3.08;2.10;;;;;;;;;;5042301;28;20857;-71
2022/10/14 09:34:16;;;;;;;3.38;1.88;;;;;;;;;;5053056;28;20926;-71
2022/10/14 09:36:42;;;;;;;3.60;2.35;;;;;;;;;;5052279;28;20837;-71
2022/10/14 09:39:10;;;;;;;6.88;2.10;;;;;;;;;;5036310;28;20163;-71
2022/10/14 09:41:36;;;;;;;3.08;2.25;;;;;;;;;;5031623;28;20124;-70
2022/10/14 09:44:24;;;;;;;2.33;1.80;;;;;;;;;;5052359;28;20061;-71
2022/10/14 09:47:02;;;;;;;2.17;1.30;;;;;;;;;;5052113;28;20048;-71
2022/10/14 09:49:40;;;;;;;2.67;1.33;;;;;;;;;;5051699;28;20048;-70
2022/10/14 09:52:07;;;;;;;2.30;1.60;;;;;;;;;;5052381;28;20148;-71
2022/10/14 09:54:33;;;;;;;2.83;1.70;;;;;;;;;;5050830;28;20049;-70
2022/10/14 09:57:04;;;;;;;3.30;1.73;;;;;;;;;;5048441;28;20041;-71
2022/10/14 09:59:31;;;;;;;3.45;1.90;;;;;;;;;;5034319;28;20049;-71
2022/10/14 10:01:59;;;;;;;4.65;1.98;;;;;;;;;;5049295;28;20049;-70
2022/10/14 10:04:31;;;;;;;3.25;1.98;;;;;;;;;;5050733;28;20189;-71
2022/10/14 10:06:58;;;;;;;;;;;;;;;;;;5048597;28;21030;-70
2022/10/14 10:09:24;;;;;;;2.30;1.58;;;;;;;;;;5048269;28;19929;-71
2022/10/14 10:11:50;;;;;;;3.22;1.60;;;;;;;;;;5045658;28;20049;-71
2022/10/14 10:14:21;;;;;;;3.33;2.22;;;;;;;;;;5034186;28;20131;-71
2022/10/14 10:16:48;;;;;;;2.83;1.80;;;;;;;;;;5032523;28;20610;-71
2022/10/14 10:19:25;;;;;;;3.72;1.98;;;;;;;;;;5045513;28;20052;-70
2022/10/14 10:21:51;;;;;;;3.33;2.15;;;;;;;;;;5048242;28;20044;-70
2022/10/14 10:24:20;;;;;;;3.75;2.50;;;;;;;;;;5041149;28;20037;-71
2022/10/14 10:26:48;;;;;;;3.70;2.28;;;;;;;;;;5046599;28;20052;-70
2022/10/14 10:29:24;;;;;;;3.45;2.00;;;;;;;;;;5048603;28;20061;-71
2022/10/14 10:32:00;;;;;;;4.38;2.55;;;;;;;;;;5051187;28;20085;-71
2022/10/14 10:34:42;;;;;;;3.00;2.05;;;;;;;;;;5040827;28;20041;-70
2022/10/14 10:37:11;;;;;;;3.33;2.25;;;;;;;;;;5051312;28;20037;-70
2022/10/14 10:39:53;;;;;;;4.38;2.50;;;;;;;;;;5031721;28;20111;-71
2022/10/14 10:42:34;;;;;;;3.22;2.17;;;;;;;;;;5041426;28;20068;-70
2022/10/14 10:45:15;;;;;;;3.45;2.00;;;;;;;;;;5049020;28;20076;-75
2022/10/14 10:47:43;;;;;;;2.45;1.63;;;;;;;;;;5032039;28;20107;-78
2022/10/14 10:50:16;;;;;;;2.83;1.60;;;;;;;;;;5040161;28;20053;-84
2022/10/14 10:53:02;;;;;;;4.32;2.60;;;;;;;;;;5035447;28;20073;-71
2022/10/14 10:55:28;;;;;;;4.90;2.33;;;;;;;;;;5052291;28;20041;-71
2022/10/14 10:57:57;;;;;;;3.10;1.95;;;;;;;;;;5030374;28;20049;-71
2022/10/14 11:00:24;;;;;;;3.45;1.70;;;;;;;;;;5050025;28;20099;-69
2022/10/14 11:02:55;;;;;;;1.73;1.33;;;;;;;;;;5028359;28;20045;-70
2022/10/14 11:05:22;;;;;;;3.15;1.58;;;;;;;;;;5046998;28;20574;-70
2022/10/14 11:13:26;;;;;;;4.05;1.40;;;;;;;;;;5049971;28;20049;-73
2022/10/14 11:16:05;;;;;;;2.70;1.42;;;;;;;;;;5041810;28;20041;-70
2022/10/14 11:18:34;;;;;;;3.22;1.75;;;;;;;;;;5041926;28;20167;-75
2022/10/14 11:21:20;;;;;;;3.55;1.08;;;;;;;;;;5052445;28;20049;-75
2022/10/14 11:24:09;;;;;;;4.30;1.45;;;;;;;;;;5053670;28;20045;-75
2022/10/14 11:26:52;;;;;;;2.03;1.15;;;;;;;;;;5021413;28;20049;-74
2022/10/14 11:29:38;;;;;;;2.25;1.25;;;;;;;;;;5034400;28;20041;-76
2022/10/14 11:32:04;;;;;;;2.33;1.08;;;;;;;;;;5050315;28;20146;-75
2022/10/14 11:34:39;;;;;;;1.38;0.90;;;;;;;;;;5072046;28;20042;-75
2022/10/14 11:37:09;;;;;;;2.03;1.15;;;;;;;;;;5070716;28;20049;-75
2022/10/14 11:39:54;;;;;;;2.13;0.80;;;;;;;;;;5071926;28;20043;-75
2022/10/14 11:42:25;;;;;;;2.20;1.02;;;;;;;;;;5055971;28;20066;-76
2022/10/14 11:45:06;;;;;;;1.23;0.80;;;;;;;;;;5069735;28;20072;-76
2022/10/14 11:47:33;;;;;;;0.82;0.70;;;;;;;;;;5059358;28;20733;-75
2022/10/14 11:50:02;;;;;;;1.48;0.90;;;;;;;;;;5053364;28;20032;-76
2022/10/14 11:52:31;;;;;;;0.70;0.50;;;;;;;;;;5074745;28;20096;-75
2022/10/14 11:55:17;;;;;;;1.40;1.00;;;;;;;;;;5055209;28;20045;-75
2022/10/14 11:57:44;;;;;;;0.60;0.60;;;;;;;;;;5072243;28;20074;-77
2022/10/14 12:00:14;;;;;;;1.33;0.75;;;;;;;;;;5055395;28;20048;-74
2022/10/14 12:02:50;;;;;;;1.05;0.70;;;;;;;;;;5050896;28;21226;-75
2022/10/14 12:05:29;;;;;;;0.55;0.55;;;;;;;;;;5067227;28;20137;-74
2022/10/14 12:08:09;;;;;;;1.33;0.70;;;;;;;;;;5054324;28;20040;-74
2022/10/14 12:10:42;;;;;;;0.57;0.57;;;;;;;;;;5069601;28;20048;-75
2022/10/14 12:13:12;;;;;;;1.05;0.55;;;;;;;;;;5068216;28;20179;-75
2022/10/14 12:15:43;;;;;;;0.68;0.60;;;;;;;;;;5055455;28;20613;-76
2022/10/14 12:18:11;;;;;;;0.30;0.30;;;;;;;;;;5070328;28;21560;-77
2022/10/14 12:20:48;;;;;;;1.15;0.75;;;;;;;;;;5030606;28;20131;-81
2022/10/14 12:23:35;;;;;;;0.70;0.60;;;;;;;;;;5032539;28;20053;-71
2022/10/14 12:26:04;;;;;;;0.55;0.50;;;;;;;;;;5028836;28;20285;-71
2022/10/14 12:28:30;;;;;;;1.42;0.47;;;;;;;;;;5027795;28;20044;-72
2022/10/14 12:31:15;;;;;;;1.23;0.73;;;;;;;;;;5011667;28;20064;-72
2022/10/14 12:34:00;;;;;;;1.00;0.60;;;;;;;;;;5030651;28;20112;-71
2022/10/14 12:36:32;;;;;;;0.73;0.70;;;;;;;;;;5034396;28;20143;-69
2022/10/14 12:39:21;;;;;;;1.02;0.80;;;;;;;;;;5036161;28;20042;-70
2022/10/14 12:41:59;;;;;;;1.17;0.80;;;;;;;;;;5012570;28;20049;-69
2022/10/14 12:44:43;;;;;;;1.27;0.80;;;;;;;;;;5027278;28;20049;-71
2022/10/14 12:47:18;;;;;;;1.25;0.80;;;;;;;;;;5010857;28;20050;-70
2022/10/14 12:49:47;;;;;;;0.70;0.70;;;;;;;;;;5027079;28;20053;-70
2022/10/14 12:52:18;;;;;;;1.95;1.00;;;;;;;;;;5029949;28;20067;-73
2022/10/14 12:54:50;;;;;;;0.93;0.73;;;;;;;;;;5017879;28;20189;-74
2022/10/14 12:57:30;;;;;;;0.90;0.80;;;;;;;;;;5031426;28;20120;-75
2022/10/14 12:59:58;;;;;;;1.13;0.80;;;;;;;;;;5041777;28;20053;-71
2022/10/14 13:02:24;;;;;;;1.40;1.05;;;;;;;;;;5030728;28;20053;-71
2022/10/14 13:04:53;;;;;;;1.85;0.93;;;;;;;;;;5036489;28;20049;-71
2022/10/14 13:07:25;;;;;;;1.08;0.85;;;;;;;;;;5052045;28;20095;-71
2022/10/14 13:09:58;;;;;;;1.30;0.80;;;;;;;;;;5048734;28;20558;-71
2022/10/14 13:12:24;;;;;;;1.00;0.90;;;;;;;;;;5042793;28;20525;-71
2022/10/14 13:15:09;;;;;;;2.35;1.40;;;;;;;;;;5033686;28;20056;-71
2022/10/14 13:17:35;;;;;;;1.92;1.08;;;;;;;;;;5030317;28;20065;-71
2022/10/14 13:20:03;;;;;;;1.45;1.02;;;;;;;;;;5052937;28;20051;-71
2022/10/14 13:22:30;;;;;;;1.60;0.90;;;;;;;;;;5043066;28;20037;-71
2022/10/14 13:25:14;;;;;;;4.65;1.70;;;;;;;;;;5033522;28;20049;-71
2022/10/14 13:27:48;;;;;;;3.65;1.70;;;;;;;;;;5032403;28;20956;-71
2022/10/14 13:30:38;;;;;;;1.83;1.05;;;;;;;;;;5063235;28;20047;-71
2022/10/14 13:33:10;;;;;;;1.83;1.15;;;;;;;;;;5049098;28;20048;-71
2022/10/14 13:35:48;;;;;;;1.50;0.85;;;;;;;;;;5070244;28;20049;-71
2022/10/14 13:38:16;;;;;;;1.20;0.90;;;;;;;;;;5072118;28;20028;-70
2022/10/14 13:40:56;;;;;;;3.15;1.77;;;;;;;;;;5053556;28;20056;-71
2022/10/14 13:43:41;;;;;;;2.00;1.23;;;;;;;;;;5053733;28;20048;-71
2022/10/14 13:46:11;;;;;;;1.95;1.33;;;;;;;;;;5078086;28;20038;-71
2022/10/14 13:48:39;;;;;;;1.90;1.38;;;;;;;;;;5051472;28;20036;-71
2022/10/14 13:51:26;;;;;;;3.92;1.67;;;;;;;;;;5069275;28;20037;-70
2022/10/14 13:53:57;;;;;;;2.13;1.27;;;;;;;;;;5031301;28;20075;-71
2022/10/14 13:56:23;;;;;;;1.98;1.40;;;;;;;;;;5051593;28;20506;-71
2022/10/14 13:58:49;;;;;;;3.95;2.00;;;;;;;;;;5069497;28;20041;-71
2022/10/14 14:01:16;;;;;;;2.20;1.55;;;;;;;;;;5071091;28;20123;-70
2022/10/14 14:03:44;;;;;;;3.63;2.30;;;;;;;;;;5055712;28;20032;-71
2022/10/14 14:06:11;;;;;;;3.55;1.63;;;;;;;;;;5052691;28;20047;-71
2022/10/14 14:08:45;;;;;;;2.15;1.52;;;;;;;;;;5061551;28;20076;-75
2022/10/14 14:11:17;;;;;;;1.95;1.33;;;;;;;;;;5049438;28;20080;-71
2022/10/14 14:13:48;;;;;;;3.65;1.20;;;;;;;;;;5070238;28;20037;-71
2022/10/14 14:16:20;;;;;;;2.15;1.20;;;;;;;;;;5070726;28;20107;-71
2022/10/14 14:18:47;;;;;;;2.45;1.40;;;;;;;;;;5070743;28;20052;-71
2022/10/14 14:21:14;;;;;;;3.30;1.85;;;;;;;;;;5050103;28;20523;-71
2022/10/14 14:23:53;;;;;;;2.08;1.20;;;;;;;;;;5049914;28;20360;-71
2022/10/14 14:26:20;;;;;;;2.72;1.20;;;;;;;;;;5049710;28;20075;-71
2022/10/14 14:28:47;;;;;;;1.98;1.20;;;;;;;;;;5047102;28;20107;-70
2022/10/14 14:31:15;;;;;;;4.10;1.27;;;;;;;;;;5032717;28;20068;-71
2022/10/14 14:33:41;;;;;;;2.53;1.48;;;;;;;;;;5033534;28;20120;-71
2022/10/14 14:36:12;;;;;;;3.95;1.45;;;;;;;;;;5048774;28;20056;-70
2022/10/14 14:38:44;;;;;;;3.90;1.98;;;;;;;;;;5034439;28;20696;-71
2022/10/14 14:41:10;;;;;;;;;;;;;;;;;;5051348;28;20545;-71
2022/10/14 14:43:36;;;;;;;6.97;1.92;;;;;;;;;;5070288;28;19920;-71
2022/10/14 14:46:03;;;;;;;5.63;2.28;;;;;;;;;;5036578;28;20052;-71
2022/10/14 14:48:30;;;;;;;4.28;1.65;;;;;;;;;;5033941;28;20047;-71
2022/10/14 14:50:56;;;;;;;2.65;1.70;;;;;;;;;;5034734;28;21026;-71
2022/10/14 14:53:28;;;;;;;2.33;1.40;;;;;;;;;;5055663;28;20032;-71
2022/10/14 14:55:59;;;;;;;2.67;1.30;;;;;;;;;;5044245;28;20053;-71
2022/10/14 14:58:25;;;;;;;2.75;1.33;;;;;;;;;;5069688;28;20594;-71
2022/10/14 15:00:53;;;;;;;2.35;1.30;;;;;;;;;;5043159;28;20099;-71
2022/10/14 15:03:20;;;;;;;7.75;1.58;;;;;;;;;;5054504;28;20044;-71